Grandview Heights, Ohio
Current Conditions -  °F | °C
As of 4:53 PM on Monday 24 Nov 2014 (Local Time) from KOSU Reporting Station
Light Rain Light Rain  
Wind Chill:   Ceiling: 3600
Heat Index:   Visibility: 10mi
Dew Point:   Wind: 22mph
Humidity: 63%   Direction: 240°WSW
Pressure: 29.68"   Gusts: 33mph
Location:  39.987°N, 83.0425°W
Report Text: KOSU 242153Z 24019G29KT 10SM -RA OVC036 07/00 A2968 RMK AO2 PK WND 24035/2122 SLP052 P0000 T00670000
Loading
Personal Weather Stations






























Interactive Weather Map New forecast layout! Learn more

10-Day Weather Forecast

Advertisements
Track Severe Weather on mobile